Wilson Lake, Indiana
Current Conditions -  °F | °C
As of 6:54 PM on Saturday 25 Oct 2014 (Local Time) from KFWA Reporting Station
Few Clouds Few Clouds  
Wind Chill: 62°   Ceiling: Unl
Heat Index: 62°   Visibility: 10mi
Dew Point: 32°   Wind: 7mph
Humidity: 32%   Direction: 280°W
Pressure: 29.88"   Gusts: NA
Location:  41.1479°N, 85.4772°W
Report Text: KFWA 252254Z 28006KT 10SM FEW250 17/00 A2988 RMK AO2 SLP117 T01670000
Loading
Personal Weather Stations






























Interactive Weather Map
Tropical Storm Tracking
New forecast layout! Learn more

10-Day Weather Forecast

Advertisements
Track Severe Weather on mobile